createdAt,value
2017-11-14T00:02:05.272Z,15.65
2017-11-14T00:04:32.727Z,14.98
2017-11-14T00:07:00.256Z,13.95
2017-11-14T00:09:27.688Z,15.13
2017-11-14T00:11:55.850Z,14.75
2017-11-14T00:14:23.260Z,12.55
2017-11-14T00:16:50.950Z,17.42
2017-11-14T00:19:18.386Z,12.90
2017-11-14T00:21:45.815Z,11.40
2017-11-14T00:24:13.269Z,12.60
2017-11-14T00:26:40.708Z,15.68
2017-11-14T00:29:08.140Z,13.48
2017-11-14T00:31:35.583Z,10.43
2017-11-14T00:34:03.014Z,14.10
2017-11-14T00:36:30.438Z,11.05
2017-11-14T00:38:58.075Z,11.93
2017-11-14T00:41:25.906Z,16.58
2017-11-14T00:43:53.329Z,15.07
2017-11-14T00:46:20.778Z,11.98
2017-11-14T00:48:48.210Z,12.20
2017-11-14T00:51:16.042Z,11.95
2017-11-14T00:53:43.468Z,13.57
2017-11-14T00:56:10.896Z,10.50
2017-11-14T00:58:38.377Z,14.27
2017-11-14T01:01:05.821Z,12.45
2017-11-14T01:03:33.242Z,11.15
2017-11-14T01:06:01.174Z,12.55
2017-11-14T01:08:28.589Z,9.23
2017-11-14T01:10:56.033Z,13.15
2017-11-14T01:13:23.957Z,10.43
2017-11-14T01:15:51.388Z,8.32
2017-11-14T01:18:18.819Z,10.10
2017-11-14T01:20:46.232Z,8.80
2017-11-14T01:23:13.666Z,10.57
2017-11-14T01:25:41.318Z,10.90
2017-11-14T01:28:08.742Z,9.15
2017-11-14T01:30:36.173Z,9.32
2017-11-14T01:33:03.998Z,10.02
2017-11-14T01:35:31.434Z,10.35
2017-11-14T01:37:58.889Z,11.48
2017-11-14T01:40:26.320Z,10.30
2017-11-14T01:42:53.749Z,9.45
2017-11-14T01:45:21.581Z,10.25
2017-11-14T01:47:49.005Z,9.25
2017-11-14T01:50:16.425Z,8.57
2017-11-14T01:52:44.250Z,7.85
2017-11-14T01:55:11.697Z,9.20
2017-11-14T01:57:39.125Z,12.05
2017-11-14T02:00:06.562Z,9.20
2017-11-14T02:02:34.425Z,7.85
2017-11-14T02:05:01.834Z,8.05
2017-11-14T02:07:29.284Z,9.95
2017-11-14T02:09:56.754Z,7.57
2017-11-14T02:12:24.183Z,10.35
2017-11-14T02:14:51.612Z,7.97
2017-11-14T02:17:19.412Z,6.50
2017-11-14T02:19:46.838Z,7.53
2017-11-14T02:22:14.261Z,8.68
2017-11-14T02:24:42.164Z,7.65
2017-11-14T02:27:10.374Z,9.88
2017-11-14T02:29:37.801Z,8.55
2017-11-14T02:32:05.224Z,9.13
2017-11-14T02:34:32.686Z,11.50
2017-11-14T02:37:00.399Z,16.77
2017-11-14T02:39:27.817Z,9.18
2017-11-14T02:41:55.249Z,9.32
2017-11-14T02:44:22.673Z,8.68
2017-11-14T02:46:50.096Z,7.97
2017-11-14T02:49:17.555Z,10.18
2017-11-14T02:51:44.977Z,10.32
2017-11-14T02:54:12.405Z,14.48
2017-11-14T02:56:40.248Z,15.25
2017-11-14T02:59:07.686Z,12.88
2017-11-14T03:01:35.109Z,10.10
2017-11-14T03:04:02.562Z,14.35
2017-11-14T03:06:29.992Z,13.35
2017-11-14T03:08:57.813Z,9.50
2017-11-14T03:11:25.281Z,9.82
2017-11-14T03:13:52.712Z,12.73
2017-11-14T03:16:20.138Z,12.25
2017-11-14T03:18:47.593Z,12.70
2017-11-14T03:21:15.021Z,11.80
2017-11-14T03:23:42.451Z,15.50
2017-11-14T03:26:09.902Z,12.32
2017-11-14T03:28:37.340Z,13.60
2017-11-14T03:31:04.762Z,12.50
2017-11-14T03:33:32.475Z,12.02
2017-11-14T03:35:59.899Z,11.57
2017-11-14T03:38:27.313Z,14.95
2017-11-14T03:40:55.357Z,13.98
2017-11-14T03:43:22.788Z,13.25
2017-11-14T03:45:50.208Z,15.35
2017-11-14T03:48:17.667Z,11.65
2017-11-14T03:50:45.102Z,15.40
2017-11-14T03:53:12.925Z,12.70
2017-11-14T03:55:40.385Z,14.77
2017-11-14T03:58:07.827Z,11.93
2017-11-14T04:00:35.261Z,15.23
2017-11-14T04:03:02.785Z,10.57
2017-11-14T04:05:30.614Z,10.98
2017-11-14T04:07:58.056Z,12.90
2017-11-14T04:10:25.512Z,15.45
2017-11-14T04:12:52.950Z,14.40
2017-11-14T04:15:20.374Z,12.85
2017-11-14T04:17:48.476Z,11.52
2017-11-14T04:20:15.898Z,10.75
2017-11-14T04:22:43.730Z,13.02
2017-11-14T04:25:11.378Z,13.20
2017-11-14T04:27:38.805Z,12.07
2017-11-14T04:30:06.239Z,12.50
2017-11-14T04:32:34.184Z,13.68
2017-11-14T04:35:01.598Z,10.73
2017-11-14T04:37:29.026Z,11.95
2017-11-14T04:39:56.469Z,11.90
2017-11-14T04:42:24.301Z,12.68
2017-11-14T04:44:51.733Z,11.40
2017-11-14T04:47:19.184Z,10.20
2017-11-14T04:49:46.614Z,11.45
2017-11-14T04:52:14.049Z,12.05
2017-11-14T04:54:41.895Z,9.00
2017-11-14T04:57:09.325Z,12.88
2017-11-14T04:59:36.748Z,9.75
2017-11-14T05:02:04.220Z,13.60
2017-11-14T05:04:31.653Z,13.25
2017-11-14T05:06:59.068Z,11.23
2017-11-14T05:09:26.521Z,14.15
2017-11-14T05:11:53.953Z,11.75
2017-11-14T05:14:21.381Z,15.40
2017-11-14T05:16:48.849Z,14.57
2017-11-14T05:19:16.290Z,13.70
2017-11-14T05:21:43.706Z,18.48
2017-11-14T05:24:11.545Z,11.20
2017-11-14T05:26:40.402Z,12.57
2017-11-14T05:29:07.819Z,11.50
2017-11-14T05:31:35.680Z,11.50
2017-11-14T05:34:03.501Z,18.45
2017-11-14T05:36:30.931Z,14.85
2017-11-14T05:38:58.402Z,14.02
2017-11-14T05:41:25.817Z,12.35
2017-11-14T05:43:53.649Z,11.02
2017-11-14T05:46:21.081Z,11.43
2017-11-14T05:48:48.513Z,14.95
2017-11-14T05:51:15.973Z,14.38
2017-11-14T05:53:43.405Z,12.57
2017-11-14T05:56:11.232Z,11.40
2017-11-14T05:58:38.666Z,14.87
2017-11-14T06:01:06.096Z,11.18
2017-11-14T06:03:33.553Z,12.93
2017-11-14T06:06:00.973Z,9.35
2017-11-14T06:08:28.805Z,12.73
2017-11-14T06:10:56.257Z,11.48
2017-11-14T06:13:23.677Z,15.18
2017-11-14T06:15:51.109Z,13.45
2017-11-14T06:18:19.038Z,12.45
2017-11-14T06:20:46.469Z,16.58
2017-11-14T06:23:13.894Z,12.77
2017-11-14T06:25:41.695Z,10.60
2017-11-14T06:28:09.129Z,12.25
2017-11-14T06:30:36.559Z,12.68
2017-11-14T06:33:04.400Z,16.10
2017-11-14T06:35:31.834Z,9.13
2017-11-14T06:37:59.272Z,12.13
2017-11-14T06:40:27.017Z,13.88
2017-11-14T06:42:54.444Z,12.15
2017-11-14T06:45:22.272Z,16.92
2017-11-14T06:47:49.736Z,12.70
2017-11-14T06:50:17.953Z,14.40
2017-11-14T06:52:45.382Z,12.70
2017-11-14T06:55:13.247Z,13.52
2017-11-14T06:57:41.838Z,11.05
2017-11-14T07:00:09.246Z,13.05
2017-11-14T07:02:36.707Z,12.82
2017-11-14T07:05:04.142Z,8.65
2017-11-14T07:07:31.574Z,12.02
2017-11-14T07:10:00.114Z,12.98
2017-11-14T07:12:27.549Z,12.65
2017-11-14T07:14:54.977Z,12.88
2017-11-14T07:17:22.765Z,10.43
2017-11-14T07:19:50.185Z,8.07
2017-11-14T07:22:17.629Z,11.82
2017-11-14T07:24:45.172Z,7.80
2017-11-14T07:27:12.994Z,15.63
2017-11-14T07:29:40.429Z,10.73
2017-11-14T07:32:07.941Z,9.82
2017-11-14T07:34:35.767Z,10.95
2017-11-14T07:37:05.330Z,9.80
2017-11-14T07:39:32.969Z,15.55
2017-11-14T07:42:00.827Z,10.70
2017-11-14T07:44:28.275Z,10.10
2017-11-14T07:46:58.274Z,9.43
2017-11-14T07:49:25.756Z,8.73
2017-11-14T07:51:53.690Z,9.80
2017-11-14T07:54:21.135Z,18.23
2017-11-14T07:56:48.845Z,17.92
2017-11-14T07:59:16.674Z,9.03
2017-11-14T08:01:44.103Z,8.73
2017-11-14T08:04:11.685Z,12.33
2017-11-14T08:06:59.505Z,12.57
2017-11-14T08:09:26.930Z,7.80
2017-11-14T08:11:54.732Z,8.63
2017-11-14T08:14:22.157Z,9.53
2017-11-14T08:16:49.614Z,9.70
2017-11-14T08:19:17.041Z,8.90
2017-11-14T08:21:44.860Z,20.90
2017-11-14T08:24:12.557Z,6.77
2017-11-14T08:26:39.979Z,8.93
2017-11-14T08:29:07.405Z,11.10
2017-11-14T08:31:35.186Z,7.30
2017-11-14T08:34:02.602Z,7.20
2017-11-14T08:36:30.425Z,14.00
2017-11-14T08:38:58.174Z,9.93
2017-11-14T08:41:25.671Z,11.40
2017-11-14T08:43:53.078Z,7.30
2017-11-14T08:46:20.538Z,8.80
2017-11-14T08:48:47.962Z,7.53
2017-11-14T08:51:15.383Z,8.17
2017-11-14T08:53:42.829Z,11.17
2017-11-14T08:56:10.258Z,7.50
2017-11-14T08:58:37.668Z,9.67
2017-11-14T09:01:05.118Z,10.83
2017-11-14T09:03:32.933Z,8.33
2017-11-14T09:06:00.351Z,9.50
2017-11-14T09:08:27.783Z,10.03
2017-11-14T09:10:55.597Z,7.53
2017-11-14T09:13:23.028Z,12.37
2017-11-14T09:15:50.466Z,7.73
2017-11-14T09:18:18.278Z,9.93
2017-11-14T09:20:45.701Z,12.33
2017-11-14T09:23:13.485Z,10.00
2017-11-14T09:25:40.902Z,6.77
2017-11-14T09:28:08.727Z,14.07
2017-11-14T09:30:36.469Z,11.73
2017-11-14T09:33:03.897Z,11.30
2017-11-14T09:35:31.319Z,7.17
2017-11-14T09:37:58.756Z,11.07
2017-11-14T09:40:26.179Z,11.53
2017-11-14T09:42:53.606Z,15.13
2017-11-14T09:45:21.057Z,7.60
2017-11-14T09:47:48.873Z,10.27
2017-11-14T09:50:16.302Z,10.70
2017-11-14T09:52:43.745Z,12.40
2017-11-14T09:55:11.167Z,8.60
2017-11-14T09:57:38.592Z,10.27
2017-11-14T10:00:06.025Z,11.60
2017-11-14T10:02:33.456Z,11.63
2017-11-14T10:05:01.270Z,8.23
2017-11-14T10:07:28.681Z,7.80
2017-11-14T10:09:56.117Z,9.43
2017-11-14T10:12:23.946Z,10.63
2017-11-14T10:14:51.374Z,12.50
2017-11-14T10:17:18.814Z,9.03
2017-11-14T10:19:46.244Z,13.80
2017-11-14T10:22:14.057Z,7.83
2017-11-14T10:24:41.809Z,7.00
2017-11-14T10:27:09.233Z,18.73
2017-11-14T10:29:36.665Z,9.40
2017-11-14T10:32:04.093Z,6.17
2017-11-14T10:34:31.529Z,13.93
2017-11-14T10:36:58.961Z,7.07
2017-11-14T10:39:26.741Z,10.70
2017-11-14T10:41:54.162Z,8.37
2017-11-14T10:44:21.985Z,11.30
2017-11-14T10:46:49.414Z,9.40
2017-11-14T10:49:16.842Z,13.17
2017-11-14T10:51:44.258Z,7.13
2017-11-14T10:54:11.985Z,44.43
2017-11-14T10:56:39.408Z,9.53
2017-11-14T10:59:07.229Z,12.30
2017-11-14T11:01:34.673Z,13.80
2017-11-14T11:04:02.107Z,6.73
2017-11-14T11:06:29.531Z,10.20
2017-11-14T11:08:57.386Z,7.77
2017-11-14T11:11:25.207Z,6.27
2017-11-14T11:13:52.634Z,8.10
2017-11-14T11:16:30.875Z,11.90
2017-11-14T11:18:58.298Z,15.37
2017-11-14T11:21:25.722Z,15.93
2017-11-14T11:23:53.567Z,12.07
2017-11-14T11:26:20.992Z,17.03
2017-11-14T11:28:48.425Z,9.43
2017-11-14T11:31:15.970Z,10.53
2017-11-14T11:33:44.222Z,15.57
2017-11-14T11:36:11.637Z,9.63
2017-11-14T11:38:39.298Z,10.60
2017-11-14T11:41:06.721Z,12.63
2017-11-14T11:43:34.145Z,13.03
2017-11-14T11:46:02.146Z,12.43
2017-11-14T11:48:29.574Z,15.73
2017-11-14T11:50:57.397Z,10.60
2017-11-14T11:53:24.853Z,10.00
2017-11-14T11:55:52.278Z,11.73
2017-11-14T11:58:19.705Z,13.63
2017-11-14T12:00:47.556Z,9.73
2017-11-14T12:03:14.970Z,14.30
2017-11-14T12:05:42.394Z,10.93
2017-11-14T12:08:09.833Z,15.47
2017-11-14T12:10:37.260Z,16.27
2017-11-14T12:13:04.680Z,15.33
2017-11-14T12:15:33.158Z,12.93
2017-11-14T12:18:00.593Z,11.77
2017-11-14T12:20:28.028Z,14.83
2017-11-14T12:22:55.845Z,19.60
2017-11-14T12:25:23.289Z,17.00
2017-11-14T12:27:50.726Z,12.90
2017-11-14T12:30:18.154Z,13.30
2017-11-14T12:32:45.986Z,16.10
2017-11-14T12:35:13.409Z,12.93
2017-11-14T12:37:40.845Z,17.30
2017-11-14T12:40:08.278Z,12.67
2017-11-14T12:42:36.121Z,10.80
2017-11-14T12:45:03.550Z,14.93
2017-11-14T12:47:31.013Z,19.77
2017-11-14T12:49:58.436Z,21.40
2017-11-14T12:52:25.869Z,19.13
2017-11-14T12:54:53.831Z,21.67
2017-11-14T12:57:21.238Z,24.63
2017-11-14T12:59:48.661Z,12.70
2017-11-14T13:02:16.211Z,19.73
2017-11-14T13:04:44.034Z,17.67
2017-11-14T13:07:11.462Z,18.03
2017-11-14T13:09:38.927Z,19.37
2017-11-14T13:12:07.330Z,21.00
2017-11-14T13:14:34.751Z,18.43
2017-11-14T13:17:02.413Z,24.40
2017-11-14T13:19:29.845Z,22.20
2017-11-14T13:21:57.272Z,24.07
2017-11-14T13:24:25.121Z,23.97
2017-11-14T13:26:52.557Z,22.83
2017-11-14T13:29:19.992Z,23.77
2017-11-14T13:31:47.444Z,21.20
2017-11-14T13:34:14.877Z,21.53
2017-11-14T13:36:42.334Z,22.37
2017-11-14T13:39:10.020Z,23.60
2017-11-14T13:41:37.451Z,22.20
2017-11-14T13:44:04.886Z,25.43
2017-11-14T13:46:32.741Z,23.87
2017-11-14T13:49:00.565Z,20.40
2017-11-14T13:51:28.006Z,28.13
2017-11-14T13:53:55.445Z,23.47
2017-11-14T13:56:23.444Z,28.57
2017-11-14T13:58:50.878Z,19.67
2017-11-14T14:01:18.319Z,23.83
2017-11-14T14:03:45.743Z,18.10
2017-11-14T14:06:13.574Z,28.20
2017-11-14T14:08:41.037Z,24.80
2017-11-14T14:11:08.466Z,25.60
2017-11-14T14:13:35.898Z,28.40
2017-11-14T14:16:03.336Z,26.40
2017-11-14T14:18:31.243Z,34.20
2017-11-14T14:20:58.648Z,28.03
2017-11-14T14:23:26.669Z,26.20
2017-11-14T14:25:54.097Z,28.73
2017-11-14T14:28:21.522Z,25.50
2017-11-14T14:30:48.961Z,27.80
2017-11-14T14:33:16.406Z,22.37
2017-11-14T14:35:43.825Z,33.57
2017-11-14T14:38:11.605Z,32.00
2017-11-14T14:40:39.037Z,34.40
2017-11-14T14:43:06.454Z,28.43
2017-11-14T14:45:34.180Z,31.13
2017-11-14T14:48:01.597Z,32.30
2017-11-14T14:50:29.029Z,28.37
2017-11-14T14:52:57.058Z,27.33
2017-11-14T14:55:24.499Z,33.33
2017-11-14T14:57:51.913Z,25.77
2017-11-14T15:00:19.739Z,36.77
2017-11-14T15:02:47.174Z,42.10
2017-11-14T15:05:14.637Z,32.93
2017-11-14T15:07:42.062Z,29.80
2017-11-14T15:10:09.690Z,23.60
2017-11-14T15:12:37.149Z,38.73
2017-11-14T15:15:04.975Z,30.60
2017-11-14T15:17:32.406Z,31.27
2017-11-14T15:19:59.874Z,29.57
2017-11-14T15:22:27.310Z,32.53
2017-11-14T15:24:54.742Z,30.53
2017-11-14T15:27:22.863Z,31.63
2017-11-14T15:29:50.294Z,26.10
2017-11-14T15:32:17.717Z,28.77
2017-11-14T15:34:45.570Z,34.10
2017-11-14T15:37:13.007Z,30.13
2017-11-14T15:39:40.435Z,27.93
2017-11-14T15:42:07.894Z,33.77
2017-11-14T15:44:35.321Z,30.50
2017-11-14T15:47:02.745Z,34.90
2017-11-14T15:49:30.285Z,31.83
2017-11-14T15:51:57.718Z,32.87
2017-11-14T15:54:25.148Z,38.20
2017-11-14T15:56:52.933Z,40.00
2017-11-14T15:59:20.374Z,32.27
2017-11-14T16:01:47.801Z,29.50
2017-11-14T16:04:15.634Z,30.43
2017-11-14T16:06:43.069Z,34.73
2017-11-14T16:09:10.498Z,31.13
2017-11-14T16:11:37.933Z,34.17
2017-11-14T16:14:05.753Z,31.03
2017-11-14T16:16:33.203Z,33.07
2017-11-14T16:19:00.649Z,36.97
2017-11-14T16:21:28.083Z,34.97
2017-11-14T16:23:55.513Z,37.80
2017-11-14T16:26:23.609Z,38.40
2017-11-14T16:28:51.041Z,32.87
2017-11-14T16:31:18.866Z,35.10
2017-11-14T16:33:46.294Z,42.80
2017-11-14T16:36:13.737Z,35.73
2017-11-14T16:38:41.418Z,32.47
2017-11-14T16:41:08.845Z,37.67
2017-11-14T16:43:36.272Z,37.07
2017-11-14T16:46:03.724Z,38.83
2017-11-14T16:48:31.552Z,37.90
2017-11-14T16:50:58.985Z,37.43
2017-11-14T16:53:26.438Z,38.30
2017-11-14T16:55:53.870Z,38.17
2017-11-14T16:58:21.691Z,35.20
2017-11-14T17:00:49.434Z,40.93
2017-11-14T17:03:16.865Z,37.13
2017-11-14T17:05:44.294Z,41.27
2017-11-14T17:08:12.118Z,40.70
2017-11-14T17:10:39.545Z,35.80
2017-11-14T17:13:07.194Z,38.47
2017-11-14T17:15:34.621Z,34.37
2017-11-14T17:18:02.445Z,37.00
2017-11-14T17:20:29.894Z,38.27
2017-11-14T17:22:57.321Z,35.67
2017-11-14T17:25:24.745Z,38.97
2017-11-14T17:27:52.576Z,40.10
2017-11-14T17:30:20.007Z,37.17
2017-11-14T17:32:47.469Z,35.60
2017-11-14T17:35:14.929Z,37.40
2017-11-14T17:37:42.361Z,36.73
2017-11-14T17:40:09.800Z,37.97
2017-11-14T17:42:37.665Z,35.43
2017-11-14T17:45:05.489Z,37.03
2017-11-14T17:47:32.925Z,41.83
2017-11-14T17:50:00.377Z,38.97
2017-11-14T17:52:27.814Z,36.87
2017-11-14T17:54:55.249Z,41.80
2017-11-14T17:57:22.701Z,39.97
2017-11-14T17:59:50.526Z,42.03
2017-11-14T18:02:17.961Z,47.27
2017-11-14T18:04:45.426Z,51.07
2017-11-14T18:07:12.869Z,48.57
2017-11-14T18:09:40.302Z,46.50
2017-11-14T18:12:07.733Z,46.10
2017-11-14T18:14:35.565Z,43.57
2017-11-14T18:17:03.002Z,44.93
2017-11-14T18:19:30.434Z,48.63
2017-11-14T18:21:57.861Z,46.03
2017-11-14T18:24:25.976Z,44.70
2017-11-14T18:26:53.425Z,51.93
2017-11-14T18:29:20.902Z,48.40
2017-11-14T18:31:48.353Z,47.47
2017-11-14T18:34:15.809Z,52.30
2017-11-14T18:36:43.270Z,55.70
2017-11-14T18:39:10.710Z,56.63
2017-11-14T18:41:38.143Z,51.43
2017-11-14T18:44:05.625Z,46.70
2017-11-14T18:46:33.109Z,51.87
2017-11-14T18:49:00.572Z,52.50
2017-11-14T18:51:28.305Z,50.47
2017-11-14T18:53:55.764Z,49.23
2017-11-14T18:56:23.562Z,57.70
2017-11-14T18:58:51.113Z,61.87
2017-11-14T19:01:18.555Z,52.80
2017-11-14T19:03:47.236Z,56.00
2017-11-14T19:06:14.841Z,54.37
2017-11-14T19:08:42.291Z,57.43
2017-11-14T19:11:10.132Z,54.50
2017-11-14T19:13:37.603Z,60.93
2017-11-14T19:16:05.423Z,72.80
2017-11-14T19:18:32.876Z,62.63
2017-11-14T19:21:00.358Z,69.90
2017-11-14T19:23:27.790Z,65.70
2017-11-14T19:25:55.251Z,60.43
2017-11-14T19:28:22.699Z,73.20
2017-11-14T19:30:50.125Z,69.40
2017-11-14T19:33:17.589Z,63.27
2017-11-14T19:35:45.059Z,73.70
2017-11-14T19:38:12.480Z,69.87
2017-11-14T19:40:39.983Z,78.17
2017-11-14T19:43:07.434Z,68.70
2017-11-14T19:45:34.874Z,73.23
2017-11-14T19:48:02.481Z,80.40
2017-11-14T19:50:30.326Z,67.50
2017-11-14T19:52:58.273Z,78.23
2017-11-14T19:55:25.737Z,76.47
2017-11-14T19:57:53.185Z,68.17
2017-11-14T20:00:20.618Z,80.70
2017-11-14T20:02:48.206Z,69.10
2017-11-14T20:05:15.666Z,66.87
2017-11-14T20:07:43.146Z,67.33
2017-11-14T20:10:10.566Z,65.43
2017-11-14T20:12:37.997Z,78.50
2017-11-14T20:15:05.453Z,66.70
2017-11-14T20:17:32.891Z,72.03
2017-11-14T20:20:00.328Z,71.50
2017-11-14T20:22:28.169Z,77.63
2017-11-14T20:24:55.610Z,71.50
2017-11-14T20:27:23.200Z,75.17
2017-11-14T20:29:51.119Z,71.10
2017-11-14T20:32:18.833Z,80.47
2017-11-14T20:34:46.248Z,86.40
2017-11-14T20:37:13.753Z,80.67
2017-11-14T20:39:41.229Z,75.33
2017-11-14T20:42:08.693Z,84.67
2017-11-14T20:44:36.135Z,77.00
2017-11-14T20:47:03.609Z,65.33
2017-11-14T20:49:31.057Z,89.70
2017-11-14T20:51:58.523Z,74.93
2017-11-14T20:54:25.982Z,90.87
2017-11-14T20:56:53.421Z,81.30
2017-11-14T20:59:20.865Z,71.10
2017-11-14T21:01:48.330Z,64.77
2017-11-14T21:04:15.779Z,73.23
2017-11-14T21:06:43.208Z,77.50
2017-11-14T21:09:10.659Z,70.20
2017-11-14T21:11:38.098Z,75.30
2017-11-14T21:14:05.550Z,72.57
2017-11-14T21:16:33.010Z,80.93
2017-11-14T21:19:00.850Z,74.43
2017-11-14T21:21:28.339Z,77.37
2017-11-14T21:23:55.756Z,94.70
2017-11-14T21:26:23.197Z,74.83
2017-11-14T21:28:50.927Z,68.77
2017-11-14T21:31:18.385Z,68.00
2017-11-14T21:33:46.167Z,78.40
2017-11-14T21:36:13.635Z,74.13
2017-11-14T21:38:41.063Z,64.13
2017-11-14T21:41:08.521Z,69.47
2017-11-14T21:43:36.311Z,80.17
2017-11-14T21:46:03.809Z,73.53
2017-11-14T21:48:31.213Z,73.00
2017-11-14T21:50:58.722Z,76.23
2017-11-14T21:53:26.562Z,72.10
2017-11-14T21:55:54.317Z,67.40
2017-11-14T21:58:21.795Z,81.13
2017-11-14T22:00:49.634Z,76.17
2017-11-14T22:03:19.023Z,79.53
2017-11-14T22:05:46.475Z,79.43
2017-11-14T22:08:13.907Z,90.87
2017-11-14T22:10:41.560Z,83.50
2017-11-14T22:13:09.006Z,85.13
2017-11-14T22:15:36.438Z,81.90
2017-11-14T22:18:04.634Z,91.83
2017-11-14T22:20:32.070Z,93.73
2017-11-14T22:22:59.911Z,85.93
2017-11-14T22:25:27.337Z,83.00
2017-11-14T22:27:54.833Z,70.60
2017-11-14T22:30:22.245Z,77.57
2017-11-14T22:32:49.793Z,75.20
2017-11-14T22:35:17.223Z,88.73
2017-11-14T22:37:45.138Z,73.33
2017-11-14T22:40:12.569Z,76.43
2017-11-14T22:42:40.009Z,97.07
2017-11-14T22:45:07.791Z,102.87
2017-11-14T22:47:35.223Z,108.00
2017-11-14T22:50:02.662Z,101.80
2017-11-14T22:52:30.117Z,118.30
2017-11-14T22:54:58.182Z,115.33
2017-11-14T22:57:25.992Z,105.87
2017-11-14T22:59:53.457Z,76.70
2017-11-14T23:02:20.891Z,82.80
2017-11-14T23:04:48.308Z,79.83
2017-11-14T23:07:16.147Z,87.73
2017-11-14T23:09:43.582Z,90.43
2017-11-14T23:12:11.022Z,99.97
2017-11-14T23:14:38.549Z,115.47
2017-11-14T23:17:05.977Z,95.20
2017-11-14T23:19:33.408Z,144.87
2017-11-14T23:22:00.857Z,124.67
2017-11-14T23:24:28.293Z,112.83
2017-11-14T23:26:55.782Z,180.33
2017-11-14T23:29:23.218Z,196.87
2017-11-14T23:31:50.662Z,115.50
2017-11-14T23:34:18.118Z,108.00
2017-11-14T23:36:45.544Z,138.67
2017-11-14T23:39:12.977Z,144.90
2017-11-14T23:41:40.914Z,276.43
2017-11-14T23:44:08.345Z,131.57
2017-11-14T23:46:35.781Z,105.57
2017-11-14T23:49:03.581Z,197.03
2017-11-14T23:51:31.027Z,192.60
2017-11-14T23:53:58.451Z,145.63
2017-11-14T23:56:26.249Z,180.93
2017-11-14T23:58:53.689Z,169.77
